Alpha, Washington
Current Conditions -  °F | °C
As of 6:35 PM on Friday 28 Nov 2014 (Local Time) from KCLS Reporting Station
Overcast Overcast  
Wind Chill: 40°   Ceiling: 2300
Heat Index: 43°   Visibility: 10mi
Dew Point: 41°   Wind: 5mph
Humidity: 93%   Direction: 200°SSW
Pressure: 29.54"   Gusts: NA
Location:  46.5995°N, 122.665°W
Report Text: KCLS 290235Z AUTO 20004KT 10SM FEW015 BKN023 OVC048 06/05 A2954 RMK AO2
Loading
Personal Weather Stations






























Interactive Weather Map New forecast layout! Learn more

10-Day Weather Forecast

Advertisements
Track Severe Weather on mobile